Terminal Aerodrome Forecast
Issued by NWS Louisville, KY

Home | Current Version | Previous Version | Text Only | Print | Product List | Glossary On
Versions: 1 2 3 4 5 6 7 8 9 10 11 12 13 14 15 16 17 18
000
FTUS43 KLMK 012300
TAFBWG
TAF
KBWG 012325Z 0200/0224 24005KT P6SM SCT040 BKN090
     FM020700 21005KT 5SM SHRA BR VCTS BKN040CB
     FM021100 20005KT 4SM SHRA BR VCTS BKN030CB=

USA.gov is the U.S. government's official web portal to all federal, state and local government web resources and services.